Time;durP1;ratioP1;P1;durP2;ratioP2;P2;SDS_P1;SDS_P2;PMS_P1;PMS_P2;Temp;Humidity;BMP_temperature;BMP_pressure;BME280_temperature;BME280_humidity;BME280_pressure;Samples;Min_cycle;Max_cycle;Signal;HPM_P1;HPM_P2
2023/02/16 00:00:17;;;;;;;54.13;32.57;;;5.20;99.90;;;;;;5099791;28;20449;-71
2023/02/16 00:02:43;;;;;;;47.70;30.40;;;5.20;99.90;;;;;;5100022;28;20437;-71
2023/02/16 00:05:23;;;;;;;54.40;31.70;;;5.10;99.90;;;;;;5100414;28;21029;-70
2023/02/16 00:07:50;;;;;;;52.03;32.10;;;5.10;99.90;;;;;;5099579;28;20441;-71
2023/02/16 00:10:19;;;;;;;43.03;29.40;;;5.10;99.90;;;;;;5099024;28;20556;-72
2023/02/16 00:15:30;;;;;;;49.80;28.80;;;5.10;99.90;;;;;;5104783;28;20474;-70
2023/02/16 00:18:01;;;;;;;43.97;27.47;;;5.10;99.90;;;;;;5103954;28;20556;-71
2023/02/16 00:20:30;;;;;;;44.77;29.20;;;5.10;99.90;;;;;;5105098;28;20457;-71
2023/02/16 00:22:57;;;;;;;46.60;30.07;;;5.00;99.90;;;;;;5105020;28;20465;-73
2023/02/16 00:25:25;;;;;;;42.40;28.97;;;5.00;99.90;;;;;;5104508;28;20469;-72
2023/02/16 00:27:52;;;;;;;47.20;29.13;;;5.00;99.90;;;;;;5103910;28;20540;-72
2023/02/16 00:30:21;;;;;;;41.73;26.20;;;4.90;99.90;;;;;;5104316;28;20528;-71
2023/02/16 00:32:48;;;;;;;44.17;28.23;;;4.90;99.90;;;;;;5104407;28;20481;-71
2023/02/16 00:35:15;;;;;;;40.10;26.53;;;4.90;99.90;;;;;;5103881;28;20829;-71
2023/02/16 00:37:42;;;;;;;46.20;27.93;;;4.90;99.90;;;;;;5105496;28;20492;-72
2023/02/16 00:40:10;;;;;;;45.33;27.70;;;4.90;99.90;;;;;;5105530;28;20477;-71
2023/02/16 00:42:39;;;;;;;41.30;27.67;;;4.90;99.90;;;;;;5106106;28;20495;-72
2023/02/16 00:45:14;;;;;;;37.97;27.47;;;4.90;99.90;;;;;;5108465;28;20935;-72
2023/02/16 00:47:45;;;;;;;40.27;25.93;;;4.90;99.90;;;;;;5108519;28;20497;-71
2023/02/16 00:50:17;;;;;;;44.50;26.67;;;4.80;99.90;;;;;;5108619;28;20505;-72
2023/02/16 00:52:45;;;;;;;43.70;28.27;;;4.80;99.90;;;;;;5106913;28;20963;-72
2023/02/16 00:55:15;;;;;;;40.20;26.57;;;4.80;99.90;;;;;;5106569;28;20469;-70
2023/02/16 00:57:47;;;;;;;43.67;28.20;;;4.80;99.90;;;;;;5104907;28;20536;-71
2023/02/16 01:00:21;;;;;;;43.63;26.87;;;4.80;99.90;;;;;;5105681;28;20480;-72
2023/02/16 01:02:50;;;;;;;36.63;25.20;;;4.70;99.90;;;;;;5106116;28;20452;-73
2023/02/16 01:05:17;;;;;;;36.07;24.27;;;4.70;99.90;;;;;;5106733;28;20487;-72
2023/02/16 01:13:16;;;;;;;36.40;22.70;;;4.70;99.90;;;;;;5107641;28;20509;-71
2023/02/16 01:15:43;;;;;;;37.20;24.23;;;4.70;99.90;;;;;;5106218;28;20492;-71
2023/02/16 01:18:13;;;;;;;35.07;24.20;;;4.70;99.90;;;;;;5104820;28;20453;-71
2023/02/16 01:20:40;;;;;;;36.80;25.63;;;4.60;99.90;;;;;;5105071;28;20501;-71
2023/02/16 01:23:07;;;;;;;38.23;25.27;;;4.60;99.90;;;;;;5104859;28;20457;-72
2023/02/16 01:25:35;;;;;;;39.43;25.70;;;4.60;99.90;;;;;;5105214;28;20816;-71
2023/02/16 01:28:02;;;;;;;38.57;23.83;;;4.60;99.90;;;;;;5105836;28;20453;-72
2023/02/16 01:30:30;;;;;;;35.87;24.50;;;4.70;99.90;;;;;;5104841;28;20536;-71
2023/02/16 01:32:57;;;;;;;37.07;24.70;;;4.60;99.90;;;;;;5105313;28;20510;-71
2023/02/16 01:35:30;;;;;;;39.57;27.07;;;4.60;99.90;;;;;;5104544;28;20828;-70
2023/02/16 01:37:57;;;;;;;34.40;24.87;;;4.60;99.90;;;;;;5105224;28;20830;-71
2023/02/16 01:40:36;;;;;;;34.50;23.57;;;4.60;99.90;;;;;;5103903;28;20485;-71
2023/02/16 01:43:10;;;;;;;36.40;24.70;;;4.60;99.90;;;;;;5104496;28;20469;-71
2023/02/16 01:45:43;;;;;;;36.43;23.83;;;4.60;99.90;;;;;;5104163;28;20541;-71
2023/02/16 01:48:21;;;;;;;36.17;23.53;;;4.60;99.90;;;;;;5104647;28;20441;-71
2023/02/16 01:50:54;;;;;;;32.83;22.70;;;4.60;99.90;;;;;;5104972;28;20886;-70
2023/02/16 01:53:26;;;;;;;37.70;23.80;;;4.60;99.90;;;;;;5105320;28;20473;-71
2023/02/16 01:55:59;;;;;;;35.77;24.30;;;4.60;99.90;;;;;;5105721;28;20498;-71
2023/02/16 01:58:35;;;;;;;34.80;24.30;;;4.60;99.90;;;;;;5106566;28;20510;-71
2023/02/16 02:01:37;;;;;;;39.43;23.20;;;4.50;99.90;;;;;;5107252;28;20449;-72
2023/02/16 02:06:58;;;;;;;36.77;23.30;;;4.40;99.90;;;;;;5105937;28;20475;-71
2023/02/16 02:09:35;;;;;;;33.87;24.30;;;4.40;99.90;;;;;;5106642;28;20543;-71
2023/02/16 02:12:10;;;;;;;34.83;24.00;;;4.30;99.90;;;;;;5105350;28;20448;-72
2023/02/16 02:14:39;;;;;;;30.50;22.07;;;4.40;99.90;;;;;;5105876;28;20457;-73
2023/02/16 02:17:10;;;;;;;31.70;23.33;;;4.30;99.90;;;;;;5104673;28;20460;-72
2023/02/16 02:19:46;;;;;;;30.80;21.80;;;4.30;99.90;;;;;;5105677;28;20515;-70
2023/02/16 02:26:13;;;;;;;35.43;22.33;;;4.30;99.90;;;;;;5107526;28;20546;-73
2023/02/16 02:28:47;;;;;;;33.07;21.73;;;4.20;99.90;;;;;;5107293;28;20453;-72
2023/02/16 02:31:24;;;;;;;32.40;22.17;;;4.30;99.90;;;;;;5108397;28;20726;-72
2023/02/16 02:34:00;;;;;;;32.70;21.90;;;4.30;99.90;;;;;;5107848;28;20835;-72
2023/02/16 02:36:33;;;;;;;35.30;22.67;;;4.20;99.90;;;;;;5107003;28;20429;-72
2023/02/16 02:39:12;;;;;;;32.77;22.30;;;4.20;99.90;;;;;;5107010;28;20497;-71
2023/02/16 02:42:06;;;;;;;36.67;22.50;;;4.20;99.90;;;;;;5105457;28;20481;-71
2023/02/16 02:44:39;;;;;;;31.00;21.40;;;4.20;99.90;;;;;;5104808;28;20465;-71
2023/02/16 02:47:06;;;;;;;31.23;22.90;;;4.20;99.90;;;;;;5106448;28;20493;-72
2023/02/16 02:49:35;;;;;;;31.97;22.43;;;4.20;99.90;;;;;;5106256;28;20986;-71
2023/02/16 02:52:02;;;;;;;37.93;22.60;;;4.20;99.90;;;;;;5104315;28;20524;-71
2023/02/16 03:02:58;;;;;;;33.37;21.77;;;4.20;99.90;;;;;;5103902;28;20520;-71
2023/02/16 03:05:29;;;;;;;37.03;23.03;;;4.20;99.90;;;;;;5104689;28;20485;-71
2023/02/16 03:08:05;;;;;;;32.80;20.93;;;4.20;99.90;;;;;;5103682;28;20520;-71
2023/02/16 03:13:24;;;;;;;31.03;21.90;;;4.20;99.90;;;;;;5103170;28;20452;-71
2023/02/16 03:15:56;;;;;;;35.57;23.10;;;4.20;99.90;;;;;;5102586;28;20434;-71
2023/02/16 03:29:29;;;;;;;30.63;21.93;;;4.10;99.90;;;;;;5105433;28;20424;-71
2023/02/16 03:31:58;;;;;;;37.50;23.20;;;4.10;99.90;;;;;;5106411;28;20473;-73
2023/02/16 03:34:26;;;;;;;30.83;22.37;;;4.10;99.90;;;;;;5105214;28;20983;-73
2023/02/16 03:36:58;;;;;;;33.53;22.97;;;4.10;99.90;;;;;;5106101;28;20640;-71
2023/02/16 03:39:27;;;;;;;31.97;22.10;;;4.10;99.90;;;;;;5105973;28;20467;-73
2023/02/16 03:41:55;;;;;;;37.80;23.80;;;4.20;99.90;;;;;;5105584;28;20472;-73
2023/02/16 03:44:23;;;;;;;31.13;22.00;;;4.20;99.90;;;;;;5105620;28;20548;-72
2023/02/16 03:46:51;;;;;;;35.53;22.80;;;4.20;99.90;;;;;;5106020;28;20452;-71
2023/02/16 03:49:19;;;;;;;32.97;22.40;;;4.10;99.90;;;;;;5108589;28;20473;-72
2023/02/16 03:51:47;;;;;;;35.10;23.70;;;4.10;99.90;;;;;;5109187;28;20445;-71
2023/02/16 03:54:14;;;;;;;37.60;23.00;;;4.10;99.90;;;;;;5108846;28;20472;-72
2023/02/16 03:56:41;;;;;;;29.73;22.27;;;4.00;99.90;;;;;;5109059;28;20480;-71
2023/02/16 03:59:07;;;;;;;31.40;21.57;;;4.00;99.90;;;;;;5108002;28;20516;-71
2023/02/16 04:01:34;;;;;;;34.30;22.57;;;4.00;99.90;;;;;;5109234;28;20449;-71
2023/02/16 04:04:01;;;;;;;32.00;22.10;;;4.00;99.90;;;;;;5109068;28;20782;-71
2023/02/16 04:06:29;;;;;;;32.43;21.47;;;4.00;99.90;;;;;;5108556;28;20733;-71
2023/02/16 04:08:56;;;;;;;34.13;21.87;;;4.00;99.90;;;;;;5109973;28;20464;-71
2023/02/16 04:14:16;;;;;;;26.70;20.13;;;3.90;99.90;;;;;;5073913;28;20527;-71
2023/02/16 04:16:43;;;;;;;29.50;20.73;;;3.80;99.90;;;;;;5109460;28;20504;-71
2023/02/16 04:19:10;;;;;;;28.90;21.20;;;3.80;99.90;;;;;;5109468;28;20456;-72
2023/02/16 04:21:38;;;;;;;28.47;20.03;;;3.80;99.90;;;;;;5108434;28;20449;-71
2023/02/16 04:24:06;;;;;;;30.50;21.87;;;3.80;99.90;;;;;;5108970;28;20453;-70
2023/02/16 04:26:33;;;;;;;30.03;20.90;;;3.70;99.90;;;;;;5109827;28;20481;-71
2023/02/16 04:29:00;;;;;;;29.97;21.20;;;3.70;99.90;;;;;;5109110;28;20457;-71
2023/02/16 04:31:27;;;;;;;30.10;19.47;;;3.70;99.90;;;;;;5108794;28;20521;-71
2023/02/16 04:33:54;;;;;;;28.20;19.10;;;3.60;99.90;;;;;;5109503;28;20760;-71
2023/02/16 04:36:21;;;;;;;30.37;20.07;;;3.60;99.90;;;;;;5109542;28;20620;-70
2023/02/16 04:38:49;;;;;;;28.17;19.40;;;3.60;99.90;;;;;;5108660;28;20509;-72
2023/02/16 04:41:16;;;;;;;26.30;20.20;;;3.60;99.90;;;;;;5109315;28;20576;-71
2023/02/16 04:43:42;;;;;;;23.53;18.40;;;3.60;99.90;;;;;;5109424;28;20525;-72
2023/02/16 04:46:09;;;;;;;26.63;18.37;;;3.60;99.90;;;;;;5110083;28;20534;-72
2023/02/16 04:48:36;;;;;;;27.70;19.10;;;3.60;99.90;;;;;;5110511;28;20460;-71
2023/02/16 04:51:04;;;;;;;27.57;18.97;;;3.60;99.90;;;;;;5109147;28;20536;-72
2023/02/16 04:53:31;;;;;;;23.13;17.83;;;3.60;99.90;;;;;;5110188;28;20453;-71
2023/02/16 04:55:59;;;;;;;23.93;18.30;;;3.60;99.90;;;;;;5110015;28;20473;-73
2023/02/16 04:58:26;;;;;;;26.90;19.57;;;3.60;99.90;;;;;;5109289;28;20488;-72
2023/02/16 05:00:53;;;;;;;23.00;17.43;;;3.60;99.90;;;;;;5107831;28;20909;-71
2023/02/16 05:03:19;;;;;;;25.50;17.80;;;3.60;99.90;;;;;;5103786;28;20463;-70
2023/02/16 05:05:47;;;;;;;23.97;17.33;;;3.50;99.90;;;;;;5103983;28;20537;-72
2023/02/16 05:08:13;;;;;;;26.80;19.27;;;3.50;99.90;;;;;;5109549;28;20472;-72
2023/02/16 05:10:42;;;;;;;24.30;16.97;;;3.60;99.90;;;;;;5109359;28;20476;-72
2023/02/16 05:15:56;;;;;;;25.70;17.60;;;3.60;99.90;;;;;;5107292;28;20491;-72
2023/02/16 05:18:23;;;;;;;25.77;17.33;;;3.60;99.90;;;;;;5107030;28;20485;-71
2023/02/16 05:23:34;;;;;;;25.23;18.27;;;3.60;99.90;;;;;;5106755;28;20861;-71
2023/02/16 05:26:01;;;;;;;26.10;17.47;;;3.60;99.90;;;;;;5107918;28;20563;-70
2023/02/16 05:28:29;;;;;;;23.97;19.17;;;3.60;99.90;;;;;;5107689;28;20483;-72
2023/02/16 05:30:56;;;;;;;21.70;16.40;;;3.60;99.90;;;;;;5107704;28;20544;-72
2023/02/16 05:33:23;;;;;;;25.97;17.83;;;3.60;99.90;;;;;;5108091;28;20481;-71
2023/02/16 05:35:50;;;;;;;25.03;16.40;;;3.60;99.90;;;;;;5107717;28;20445;-72
2023/02/16 05:38:17;;;;;;;27.33;18.07;;;3.60;99.90;;;;;;5108247;28;20522;-71
2023/02/16 05:40:44;;;;;;;27.83;17.70;;;3.60;99.90;;;;;;5108882;28;20515;-72
2023/02/16 05:43:11;;;;;;;22.77;16.93;;;3.60;99.90;;;;;;5108830;28;20599;-71
2023/02/16 05:45:40;;;;;;;23.53;17.30;;;3.60;99.90;;;;;;5107688;28;20549;-71
2023/02/16 05:48:07;;;;;;;26.73;18.03;;;3.60;99.90;;;;;;5106609;28;20457;-70
2023/02/16 05:50:33;;;;;;;25.23;16.83;;;3.60;99.90;;;;;;5106870;28;20496;-71
2023/02/16 05:53:00;;;;;;;25.50;17.80;;;3.60;99.90;;;;;;5107176;28;20449;-70
2023/02/16 05:55:27;;;;;;;24.53;16.83;;;3.60;99.90;;;;;;5106816;28;20517;-72
2023/02/16 05:57:54;;;;;;;21.63;17.10;;;3.50;99.90;;;;;;5108729;28;20541;-71
2023/02/16 06:00:21;;;;;;;27.80;17.13;;;3.50;99.90;;;;;;5105407;28;20469;-73
2023/02/16 06:02:49;;;;;;;23.20;15.77;;;3.50;99.90;;;;;;5088370;28;20493;-71
2023/02/16 06:05:17;;;;;;;22.87;16.27;;;3.50;99.90;;;;;;5088214;28;20482;-72
2023/02/16 06:07:44;;;;;;;24.50;18.33;;;3.50;99.90;;;;;;5087014;28;20512;-73
2023/02/16 06:10:11;;;;;;;23.57;17.23;;;3.50;99.90;;;;;;5086047;28;20455;-71
2023/02/16 06:12:38;;;;;;;26.20;16.97;;;3.50;99.90;;;;;;5086185;28;20458;-70
2023/02/16 06:15:05;;;;;;;24.30;16.20;;;3.50;99.90;;;;;;5086735;28;20837;-72
2023/02/16 06:17:32;;;;;;;23.80;16.90;;;3.50;99.90;;;;;;5085945;28;20497;-71
2023/02/16 06:20:00;;;;;;;23.57;16.90;;;3.50;99.90;;;;;;5086689;28;20470;-71
2023/02/16 06:22:27;;;;;;;23.90;15.77;;;3.50;99.90;;;;;;5085282;28;20884;-71
2023/02/16 06:24:54;;;;;;;26.47;17.07;;;3.50;99.90;;;;;;5085908;28;20501;-71
2023/02/16 06:27:21;;;;;;;26.90;16.77;;;3.50;99.90;;;;;;5086387;28;20490;-71
2023/02/16 06:29:48;;;;;;;21.77;16.00;;;3.50;99.90;;;;;;5086467;28;20491;-71
2023/02/16 06:32:15;;;;;;;23.60;16.70;;;3.50;99.90;;;;;;5086946;28;20533;-70
2023/02/16 06:34:41;;;;;;;22.77;16.00;;;3.50;99.90;;;;;;5086674;28;20454;-71
2023/02/16 06:37:10;;;;;;;24.37;16.43;;;3.50;99.90;;;;;;5086679;28;20442;-71
2023/02/16 06:39:37;;;;;;;20.83;15.07;;;3.50;99.90;;;;;;5086892;28;20478;-71
2023/02/16 06:42:04;;;;;;;29.83;17.13;;;3.50;99.90;;;;;;5086270;28;20482;-72
2023/02/16 06:44:31;;;;;;;27.00;18.23;;;3.50;99.90;;;;;;5087729;28;20451;-72
2023/02/16 06:46:57;;;;;;;25.13;16.70;;;3.50;99.90;;;;;;5087974;28;20489;-72
2023/02/16 06:49:25;;;;;;;23.77;17.20;;;3.50;99.90;;;;;;5087301;28;20493;-72
2023/02/16 06:51:51;;;;;;;21.73;16.27;;;3.50;99.90;;;;;;5087317;28;20492;-72
2023/02/16 06:54:20;;;;;;;21.70;15.80;;;3.50;99.90;;;;;;5088260;28;20537;-71
2023/02/16 06:56:47;;;;;;;22.17;15.50;;;3.50;99.90;;;;;;5086878;28;20446;-72
2023/02/16 06:59:14;;;;;;;25.40;17.60;;;3.50;99.90;;;;;;5086517;28;20491;-72
2023/02/16 07:01:41;;;;;;;22.43;17.27;;;3.50;99.90;;;;;;5085567;28;20450;-71
2023/02/16 07:04:08;;;;;;;21.57;15.40;;;3.60;99.90;;;;;;5084784;28;20450;-71
2023/02/16 07:06:35;;;;;;;24.90;15.70;;;3.60;99.90;;;;;;5085793;28;20569;-71
2023/02/16 07:09:02;;;;;;;23.93;16.83;;;3.70;99.90;;;;;;5085796;28;20473;-71
2023/02/16 07:11:30;;;;;;;25.40;17.20;;;3.70;99.90;;;;;;5082142;28;20998;-72
2023/02/16 07:13:57;;;;;;;21.87;14.70;;;3.70;99.90;;;;;;5086732;28;20486;-71
2023/02/16 07:16:24;;;;;;;24.63;16.00;;;3.80;99.90;;;;;;5086443;28;20542;-71
2023/02/16 07:18:51;;;;;;;19.10;15.43;;;3.80;99.90;;;;;;5087251;28;20450;-72
2023/02/16 07:21:18;;;;;;;28.10;16.53;;;3.80;99.90;;;;;;5087219;28;20465;-72
2023/02/16 07:23:45;;;;;;;25.43;16.33;;;3.90;99.90;;;;;;5088693;28;20450;-72
2023/02/16 07:26:12;;;;;;;22.40;16.97;;;3.90;99.90;;;;;;5090389;28;20508;-71
2023/02/16 07:28:40;;;;;;;26.07;17.33;;;3.90;99.90;;;;;;5091170;28;20754;-72
2023/02/16 07:31:08;;;;;;;25.60;17.10;;;3.90;99.90;;;;;;5091458;28;20478;-72
2023/02/16 07:33:35;;;;;;;29.20;18.50;;;4.00;99.90;;;;;;5090490;28;20564;-72
2023/02/16 07:36:02;;;;;;;25.03;16.83;;;4.00;99.90;;;;;;5090440;28;20907;-71
2023/02/16 07:38:29;;;;;;;29.47;17.30;;;4.10;99.90;;;;;;5090500;28;20501;-71
2023/02/16 07:40:56;;;;;;;25.20;16.70;;;4.10;99.90;;;;;;5089553;28;20970;-71
2023/02/16 07:43:23;;;;;;;32.73;17.47;;;4.20;99.90;;;;;;5090461;28;20924;-71
2023/02/16 07:45:51;;;;;;;27.00;17.37;;;4.20;99.90;;;;;;5090451;28;20529;-70
2023/02/16 07:48:18;;;;;;;24.63;17.30;;;4.20;99.90;;;;;;5090896;28;20482;-71
2023/02/16 07:50:45;;;;;;;24.57;16.90;;;4.30;99.90;;;;;;5090034;28;20537;-72
2023/02/16 07:53:12;;;;;;;30.10;19.77;;;4.40;99.90;;;;;;5088792;28;20600;-71
2023/02/16 07:55:40;;;;;;;31.27;18.97;;;4.40;99.90;;;;;;5089848;28;20539;-71
2023/02/16 07:58:07;;;;;;;30.00;18.07;;;4.50;99.90;;;;;;5090684;28;20469;-72
2023/02/16 08:00:34;;;;;;;25.87;16.90;;;4.60;99.90;;;;;;5089373;28;20525;-71
2023/02/16 08:03:02;;;;;;;28.33;18.17;;;4.60;99.90;;;;;;5088623;28;20462;-72
2023/02/16 08:05:29;;;;;;;30.37;18.97;;;4.60;99.90;;;;;;5089650;28;20521;-71
2023/02/16 08:07:56;;;;;;;27.10;18.60;;;4.70;99.90;;;;;;5089955;28;20536;-71
2023/02/16 08:10:23;;;;;;;24.27;18.07;;;4.60;99.90;;;;;;5089673;28;20478;-72
2023/02/16 08:12:50;;;;;;;26.27;17.80;;;4.60;99.90;;;;;;5089486;28;20457;-71
2023/02/16 08:15:17;;;;;;;25.13;17.97;;;4.60;99.90;;;;;;5089085;28;20454;-71
2023/02/16 08:17:44;;;;;;;27.40;18.90;;;4.60;99.90;;;;;;5089230;28;20453;-71
2023/02/16 08:20:13;;;;;;;27.20;19.17;;;4.70;99.90;;;;;;5088402;28;20450;-71
2023/02/16 08:22:40;;;;;;;38.00;19.43;;;4.70;99.90;;;;;;5084744;28;20553;-72
2023/02/16 08:25:08;;;;;;;29.70;19.60;;;4.70;99.90;;;;;;5087021;28;20454;-71
2023/02/16 08:27:35;;;;;;;28.33;19.67;;;4.70;99.90;;;;;;5086796;28;20485;-71
2023/02/16 08:30:02;;;;;;;32.33;18.63;;;4.70;99.90;;;;;;5086461;28;20458;-72
2023/02/16 08:32:29;;;;;;;30.43;19.07;;;4.70;99.90;;;;;;5087215;28;20545;-72
2023/02/16 08:34:56;;;;;;;31.43;19.17;;;4.70;99.90;;;;;;5087546;28;20521;-73
2023/02/16 08:37:24;;;;;;;24.50;18.03;;;4.80;99.90;;;;;;5086828;28;20536;-71
2023/02/16 08:39:52;;;;;;;30.37;19.00;;;4.80;99.90;;;;;;5087262;28;20481;-70
2023/02/16 08:42:20;;;;;;;30.90;19.90;;;4.90;99.90;;;;;;5087808;28;20490;-72
2023/02/16 08:44:47;;;;;;;28.00;19.47;;;4.90;99.90;;;;;;5088238;28;20454;-71
2023/02/16 08:47:15;;;;;;;26.87;18.50;;;5.00;99.90;;;;;;5084558;28;20569;-71
2023/02/16 08:49:43;;;;;;;30.20;20.00;;;5.00;99.90;;;;;;5084259;28;20541;-71
2023/02/16 08:52:11;;;;;;;29.53;19.23;;;5.10;99.90;;;;;;5085348;28;20490;-72
2023/02/16 08:54:39;;;;;;;29.17;19.60;;;5.20;99.90;;;;;;5086525;28;20469;-72
2023/02/16 08:57:06;;;;;;;29.23;20.20;;;5.30;99.90;;;;;;5087904;28;20458;-73
2023/02/16 08:59:33;;;;;;;28.40;19.27;;;5.30;99.90;;;;;;5086764;28;20497;-72
2023/02/16 09:02:01;;;;;;;31.73;21.33;;;5.40;99.90;;;;;;5085522;28;20496;-71
2023/02/16 09:04:28;;;;;;;30.10;18.47;;;5.50;99.90;;;;;;5081718;28;20462;-71
2023/02/16 09:06:57;;;;;;;30.03;20.70;;;5.60;99.90;;;;;;5082031;28;20474;-70
2023/02/16 09:09:25;;;;;;;30.57;19.90;;;5.70;99.90;;;;;;5080926;28;20459;-72
2023/02/16 09:11:53;;;;;;;27.93;19.53;;;5.80;99.90;;;;;;5085421;28;20760;-72
2023/02/16 09:14:21;;;;;;;33.67;21.00;;;5.90;99.90;;;;;;5086130;28;20462;-72
2023/02/16 09:16:49;;;;;;;28.63;20.33;;;6.00;99.90;;;;;;5086992;28;20545;-72
2023/02/16 09:19:17;;;;;;;27.20;19.60;;;6.10;99.90;;;;;;5087375;28;20458;-72
2023/02/16 09:21:46;;;;;;;27.70;20.27;;;6.20;99.90;;;;;;5085696;28;20453;-71
2023/02/16 09:24:14;;;;;;;30.07;20.10;;;6.20;99.90;;;;;;5086567;28;20454;-71
2023/02/16 09:26:43;;;;;;;34.07;21.60;;;6.30;99.90;;;;;;5087319;28;20580;-72
2023/02/16 09:29:12;;;;;;;30.63;19.23;;;6.40;99.90;;;;;;5085343;28;20455;-71
2023/02/16 09:31:40;;;;;;;33.07;21.07;;;6.50;99.90;;;;;;5086523;28;20482;-72
2023/02/16 09:34:14;;;;;;;34.80;22.30;;;6.70;99.90;;;;;;5086013;28;20792;-71
2023/02/16 09:36:42;;;;;;;29.80;22.23;;;6.80;99.90;;;;;;5084960;28;20447;-71
2023/02/16 09:39:09;;;;;;;30.90;21.30;;;6.80;99.90;;;;;;5084162;28;20465;-72
2023/02/16 09:41:50;;;;;;;30.57;20.17;;;6.90;99.90;;;;;;5093430;28;20816;-71
2023/02/16 09:44:25;;;;;;;28.77;19.83;;;7.00;99.90;;;;;;5103763;28;20532;-71
2023/02/16 09:46:55;;;;;;;35.23;22.03;;;7.10;99.90;;;;;;5101318;28;20550;-71
2023/02/16 09:49:29;;;;;;;29.20;20.33;;;7.20;99.90;;;;;;5103456;28;20453;-72
2023/02/16 09:52:02;;;;;;;33.27;21.73;;;7.40;99.90;;;;;;5101408;28;20481;-72
2023/02/16 09:54:41;;;;;;;30.93;21.47;;;7.50;99.90;;;;;;5103845;28;20462;-71
2023/02/16 09:57:16;;;;;;;33.03;19.53;;;7.50;99.90;;;;;;5105480;28;20525;-72
2023/02/16 09:59:52;;;;;;;29.93;20.47;;;7.70;99.90;;;;;;5103416;28;20853;-72
2023/02/16 10:02:40;;;;;;;33.67;21.30;;;7.80;99.90;;;;;;5092367;28;20454;-72
2023/02/16 10:05:25;;;;;;;35.63;21.67;;;7.80;99.90;;;;;;5083132;28;20899;-73
2023/02/16 10:07:59;;;;;;;31.23;21.33;;;8.00;99.90;;;;;;5081963;28;20467;-72
2023/02/16 10:10:33;;;;;;;34.80;21.63;;;8.10;99.90;;;;;;5080701;28;20435;-72
2023/02/16 10:13:04;;;;;;;32.33;20.60;;;8.30;99.90;;;;;;5079815;28;20533;-72
2023/02/16 10:15:34;;;;;;;31.97;21.87;;;8.40;99.90;;;;;;5080254;28;20439;-72
2023/02/16 10:18:07;;;;;;;34.73;22.10;;;8.50;99.90;;;;;;5080335;28;20939;-72
2023/02/16 10:20:35;;;;;;;28.43;20.97;;;8.70;99.90;;;;;;5080935;28;20452;-72
2023/02/16 10:23:10;;;;;;;31.27;20.60;;;8.80;99.90;;;;;;5081533;28;20489;-72
2023/02/16 10:25:43;;;;;;;30.47;20.60;;;8.70;99.90;;;;;;5081555;28;20537;-72
2023/02/16 10:28:16;;;;;;;31.87;20.50;;;8.80;99.90;;;;;;5081023;28;20553;-72
2023/02/16 10:30:50;;;;;;;32.73;20.87;;;8.80;99.90;;;;;;5079609;28;20533;-73
2023/02/16 10:33:25;;;;;;;31.87;20.53;;;8.90;99.90;;;;;;5080015;28;20542;-72
2023/02/16 10:35:57;;;;;;;31.20;21.60;;;9.00;99.90;;;;;;5078951;28;20658;-73
2023/02/16 10:38:34;;;;;;;34.07;20.90;;;9.10;99.90;;;;;;5078868;28;20498;-73
2023/02/16 10:41:08;;;;;;;35.90;24.10;;;9.20;99.90;;;;;;5079457;28;20897;-72
2023/02/16 10:43:43;;;;;;;32.00;21.80;;;9.20;99.90;;;;;;5078525;28;20515;-72
2023/02/16 10:46:15;;;;;;;33.47;22.27;;;9.30;99.90;;;;;;5079007;28;20524;-72
2023/02/16 10:48:42;;;;;;;33.57;21.20;;;9.40;99.90;;;;;;5078678;28;20485;-71
2023/02/16 10:51:12;;;;;;;32.20;20.80;;;9.50;99.90;;;;;;5079146;28;20449;-72
2023/02/16 10:53:43;;;;;;;32.80;22.50;;;9.50;99.90;;;;;;5079278;28;20469;-71
2023/02/16 10:56:48;;;;;;;36.70;23.20;;;9.60;99.90;;;;;;5077972;28;20449;-71
2023/02/16 10:59:18;;;;;;;38.20;23.90;;;9.70;99.90;;;;;;5077668;28;20453;-72
2023/02/16 11:01:49;;;;;;;29.20;21.60;;;9.80;99.90;;;;;;5079832;28;20849;-72
2023/02/16 11:04:38;;;;;;;32.53;22.33;;;9.80;99.90;;;;;;5080802;28;20472;-72
2023/02/16 11:07:08;;;;;;;31.40;22.20;;;9.90;99.90;;;;;;5080766;28;20466;-71
2023/02/16 11:09:35;;;;;;;30.80;21.10;;;9.80;99.90;;;;;;5078769;28;20537;-72
2023/02/16 11:12:13;;;;;;;32.73;21.83;;;9.90;99.90;;;;;;5077514;28;20469;-71
2023/02/16 11:14:40;;;;;;;33.30;21.67;;;9.90;99.90;;;;;;5078396;28;20744;-72
2023/02/16 11:17:11;;;;;;;34.87;21.50;;;10.00;99.90;;;;;;5078030;28;20450;-73
2023/02/16 11:19:39;;;;;;;28.47;21.20;;;10.00;99.90;;;;;;5077801;28;20855;-72
2023/02/16 11:22:23;;;;;;;28.30;20.40;;;10.10;99.90;;;;;;5094108;28;20782;-71
2023/02/16 11:24:50;;;;;;;33.23;22.10;;;10.10;99.90;;;;;;5099128;28;20528;-71
2023/02/16 11:27:19;;;;;;;28.67;21.30;;;10.00;99.90;;;;;;5099390;28;20541;-72
2023/02/16 11:29:46;;;;;;;29.03;21.70;;;10.00;99.90;;;;;;5099164;28;20504;-71
2023/02/16 11:32:16;;;;;;;31.33;21.40;;;10.00;99.90;;;;;;5095434;28;20492;-72
2023/02/16 11:34:46;;;;;;;30.10;22.30;;;10.10;99.90;;;;;;5095616;28;20555;-73
2023/02/16 11:37:17;;;;;;;31.33;20.90;;;10.20;99.90;;;;;;5095630;28;20445;-72
2023/02/16 11:39:52;;;;;;;31.33;21.50;;;10.20;99.90;;;;;;5096168;28;20445;-72
2023/02/16 11:42:28;;;;;;;34.87;22.30;;;10.30;99.90;;;;;;5099851;28;20548;-72
2023/02/16 11:44:57;;;;;;;33.33;20.70;;;10.50;99.90;;;;;;5101369;28;20822;-72
2023/02/16 11:47:27;;;;;;;33.03;22.73;;;10.50;99.90;;;;;;5101401;28;20485;-72
2023/02/16 11:50:17;;;;;;;32.70;21.00;;;10.60;99.90;;;;;;5099948;28;20890;-71
2023/02/16 11:52:45;;;;;;;29.30;21.97;;;10.70;99.90;;;;;;5100383;28;20470;-71
2023/02/16 11:55:21;;;;;;;29.97;20.70;;;10.80;99.90;;;;;;5099257;28;20453;-71
2023/02/16 11:57:49;;;;;;;33.23;21.10;;;10.90;99.90;;;;;;5099508;28;20437;-73
2023/02/16 12:00:20;;;;;;;35.07;21.23;;;10.90;99.90;;;;;;5099108;28;20548;-72
2023/02/16 12:03:26;;;;;;;32.20;22.87;;;11.00;99.90;;;;;;5098047;28;20867;-72
2023/02/16 12:06:07;;;;;;;35.17;22.67;;;11.10;99.90;;;;;;5101039;28;20434;-70
2023/02/16 12:08:51;;;;;;;31.87;21.50;;;11.20;99.90;;;;;;5096436;28;20461;-72
2023/02/16 12:11:28;;;;;;;26.93;20.03;;;11.40;99.90;;;;;;5099258;28;20627;-72
2023/02/16 12:14:11;;;;;;;31.00;20.50;;;11.50;99.90;;;;;;5099145;28;20441;-72
2023/02/16 12:16:46;;;;;;;29.73;19.10;;;11.80;99.90;;;;;;5098349;28;20447;-71
2023/02/16 12:19:25;;;;;;;31.40;20.67;;;12.40;99.90;;;;;;5098287;28;20785;-72
2023/02/16 12:22:00;;;;;;;28.03;19.57;;;13.10;99.90;;;;;;5098259;28;20480;-72
2023/02/16 12:24:42;;;;;;;29.27;20.67;;;13.70;99.90;;;;;;5098525;28;20464;-72
2023/02/16 12:27:16;;;;;;;26.33;18.30;;;14.40;99.90;;;;;;5098050;28;20947;-72
2023/02/16 12:29:53;;;;;;;30.83;20.20;;;14.70;99.90;;;;;;5098864;28;20885;-71
2023/02/16 12:32:40;;;;;;;28.47;19.67;;;14.90;99.90;;;;;;5102909;28;20453;-72
2023/02/16 12:35:30;;;;;;;25.70;18.93;;;15.50;99.90;;;;;;5102563;28;20442;-72
2023/02/16 12:38:03;;;;;;;24.47;17.77;;;16.20;97.50;;;;;;5072392;28;20449;-71
2023/02/16 12:40:43;;;;;;;27.17;19.40;;;16.40;93.50;;;;;;5097617;28;20524;-72
2023/02/16 12:43:31;;;;;;;26.87;18.40;;;16.60;91.50;;;;;;5098191;28;20498;-72
2023/02/16 12:46:03;;;;;;;25.40;18.90;;;16.50;86.60;;;;;;5098398;28;20437;-73
2023/02/16 12:48:40;;;;;;;30.87;20.10;;;16.30;86.60;;;;;;5097930;28;20837;-71
2023/02/16 12:51:14;;;;;;;28.00;19.70;;;16.10;86.60;;;;;;5098083;28;20441;-72
2023/02/16 12:53:47;;;;;;;30.93;18.70;;;15.90;87.00;;;;;;5098338;28;20532;-72
2023/02/16 12:56:18;;;;;;;26.50;19.47;;;15.70;87.00;;;;;;5097717;28;20442;-72
2023/02/16 12:58:52;;;;;;;27.77;18.83;;;15.50;87.80;;;;;;5097547;28;20540;-72
2023/02/16 13:01:21;;;;;;;25.87;18.67;;;15.40;88.70;;;;;;5097575;28;20438;-73
2023/02/16 13:03:55;;;;;;;25.97;18.57;;;15.00;90.00;;;;;;5097796;28;20554;-73
2023/02/16 13:06:28;;;;;;;27.70;17.87;;;14.80;90.90;;;;;;5097900;28;20763;-74
2023/02/16 13:09:03;;;;;;;27.20;18.73;;;15.20;91.40;;;;;;5097791;28;20858;-72
2023/02/16 13:11:36;;;;;;;25.57;17.80;;;15.70;89.20;;;;;;5097800;28;20476;-72
2023/02/16 13:14:10;;;;;;;26.07;18.60;;;16.20;87.80;;;;;;5098246;28;20450;-72
2023/02/16 13:16:42;;;;;;;24.03;18.50;;;16.80;82.80;;;;;;5097718;28;20536;-73
2023/02/16 13:19:11;;;;;;;26.40;17.73;;;17.40;79.40;;;;;;5097318;28;20444;-72
2023/02/16 13:21:56;;;;;;;30.77;18.70;;;17.70;74.20;;;;;;5096554;28;20457;-72
2023/02/16 13:24:37;;;;;;;23.93;18.37;;;18.00;72.20;;;;;;5097027;28;20548;-72
2023/02/16 13:27:18;;;;;;;30.30;18.10;;;18.10;68.60;;;;;;5097990;28;20455;-72
2023/02/16 13:30:03;;;;;;;26.20;17.50;;;18.10;67.20;;;;;;5096703;28;20548;-73
2023/02/16 13:32:55;;;;;;;23.90;16.60;;;18.30;65.50;;;;;;5097387;28;20437;-72
2023/02/16 13:35:36;;;;;;;25.47;17.10;;;18.70;65.20;;;;;;5097553;28;20448;-73
2023/02/16 13:38:23;;;;;;;22.83;16.03;;;19.00;58.90;;;;;;5097060;28;20461;-75